Terminal Aerodrome Forecast
Issued by NWS

Home | Current Version | Previous Version | Graphics & Text | Print | Product List | Glossary On
Versions: 1 2 3 4 5 6 7 8 9 10 11 12 13 14 15 16 17 18 19 20
000
FTUS43 KGRB 271728
TAFMTW
TAF
KMTW 271728Z 2718/2818 29011KT 6SM -RA SCT025 BKN040
     FM271900 27010KT P6SM SCT040 BKN080
     FM280000 17007KT P6SM SCT035 SCT080
     FM280500 22004KT P6SM SKC
     FM281500 16009KT P6SM SCT090=

USA.gov is the U.S. government's official web portal to all federal, state and local government web resources and services.